Time;durP1;ratioP1;P1;durP2;ratioP2;P2;SDS_P1;SDS_P2;PMS_P1;PMS_P2;Temp;Humidity;BMP_temperature;BMP_pressure;BME280_temperature;BME280_humidity;BME280_pressure;Samples;Min_cycle;Max_cycle;Signal;HPM_P1;HPM_P2
2022/10/10 00:02:12;;;;;;;4.03;2.00;;;;;;;12.06;81.46;99766.97;5068379;28;20143;-48
2022/10/10 00:04:40;;;;;;;5.15;2.20;;;;;;;12.04;81.42;99768.78;5067974;28;20697;-49
2022/10/10 00:07:06;;;;;;;2.72;1.80;;;;;;;12.02;81.82;99768.00;5068569;28;20052;-49
2022/10/10 00:09:33;;;;;;;3.10;2.00;;;;;;;12.01;81.02;99767.16;5068510;28;20036;-49
2022/10/10 00:11:59;;;;;;;4.32;2.13;;;;;;;12.03;80.97;99767.97;5098607;28;20486;-48
2022/10/10 00:14:27;;;;;;;3.83;1.95;;;;;;;12.01;80.71;99758.47;5067478;28;20045;-53
2022/10/10 00:16:53;;;;;;;5.13;1.95;;;;;;;11.84;80.86;99739.13;5067080;28;20724;-51
2022/10/10 00:19:18;;;;;;;2.83;1.90;;;;;;;11.86;80.25;99746.91;5068769;28;20051;-49
2022/10/10 00:21:44;;;;;;;5.55;1.90;;;;;;;12.03;80.50;99767.09;5066830;28;20717;-49
2022/10/10 00:24:11;;;;;;;4.70;1.90;;;;;;;12.05;80.16;99773.09;5066462;28;20037;-48
2022/10/10 00:26:37;;;;;;;3.00;1.80;;;;;;;11.67;80.16;99718.06;5069039;28;20044;-51
2022/10/10 00:29:03;;;;;;;3.72;1.88;;;;;;;11.98;80.22;99780.31;5069195;28;20511;-51
2022/10/10 00:31:29;;;;;;;3.38;2.00;;;;;;;11.93;79.61;99765.75;5066995;28;20044;-51
2022/10/10 00:33:54;;;;;;;7.28;1.52;;;;;;;11.96;79.69;99776.06;5069020;28;20409;-48
2022/10/10 00:36:20;;;;;;;6.82;1.90;;;;;;;11.67;79.28;99741.50;5068958;28;20055;-48
2022/10/10 00:39:12;;;;;;;3.72;1.83;;;;;;;11.92;79.27;99790.97;5063975;28;20084;-50
2022/10/10 00:41:38;;;;;;;3.65;1.60;;;;;;;11.93;79.09;99808.31;5047921;28;20057;-51
2022/10/10 00:44:09;;;;;;;5.57;2.08;;;;;;;11.92;79.14;99806.59;5069097;28;20055;-49
2022/10/10 00:46:36;;;;;;;4.85;1.60;;;;;;;11.69;78.28;99778.75;5068768;28;20042;-50
2022/10/10 00:49:08;;;;;;;3.58;1.60;;;;;;;11.84;78.55;99809.47;5068114;28;20052;-48
2022/10/10 00:51:33;;;;;;;2.58;1.33;;;;;;;11.83;77.89;99812.97;5074904;28;20458;-48
2022/10/10 00:54:02;;;;;;;3.95;1.95;;;;;;;11.80;78.00;99809.66;5067182;28;20040;-53
2022/10/10 00:56:32;;;;;;;3.80;1.67;;;;;;;11.78;77.36;99811.44;5068762;28;20037;-47
2022/10/10 00:59:01;;;;;;;1.98;1.70;;;;;;;11.75;77.05;99809.81;5065294;28;20520;-50
2022/10/10 01:01:27;;;;;;;2.28;1.52;;;;;;;11.75;77.21;99809.81;5063960;28;20139;-51
2022/10/10 01:03:57;;;;;;;3.78;1.73;;;;;;;11.75;77.43;99817.66;5056761;28;20183;-51
2022/10/10 01:06:23;;;;;;;4.03;1.77;;;;;;;11.75;77.67;99819.38;5065067;28;20037;-48
2022/10/10 01:08:49;;;;;;;2.35;1.60;;;;;;;11.75;76.87;99819.38;5080571;28;20048;-52
2022/10/10 01:11:18;;;;;;;6.05;2.00;;;;;;;11.75;77.48;99820.25;5068384;28;20048;-53
2022/10/10 01:14:02;;;;;;;2.70;1.75;;;;;;;11.76;77.51;99827.16;5052589;28;20469;-53
2022/10/10 01:16:40;;;;;;;2.78;1.50;;;;;;;11.76;77.49;99832.38;5083896;28;20097;-49
2022/10/10 01:19:43;;;;;;;2.25;1.60;;;;;;;11.78;77.45;99829.69;5067813;28;20101;-48
2022/10/10 01:22:30;;;;;;;2.40;1.80;;;;;;;11.76;76.95;99827.16;5068263;28;20066;-50
2022/10/10 01:25:21;;;;;;;3.83;1.60;;;;;;;11.78;77.04;99837.50;5069042;28;20119;-51
2022/10/10 01:27:51;;;;;;;1.85;1.25;;;;;;;11.82;77.65;99839.97;5083713;28;20101;-50
2022/10/10 01:30:20;;;;;;;3.45;1.83;;;;;;;11.64;77.22;99808.47;5078942;28;20465;-49
2022/10/10 01:33:07;;;;;;;3.67;1.60;;;;;;;11.53;77.19;99800.22;5069219;28;20049;-51
2022/10/10 01:35:40;;;;;;;3.67;1.50;;;;;;;11.82;77.07;99845.16;5040462;28;20052;-48
2022/10/10 01:38:28;;;;;;;2.47;1.90;;;;;;;11.82;77.80;99854.75;5076403;28;20485;-51
2022/10/10 01:40:59;;;;;;;3.80;1.73;;;;;;;11.80;77.27;99857.41;5052101;28;20048;-50
2022/10/10 01:43:25;;;;;;;3.58;1.77;;;;;;;11.79;77.47;99852.22;5081746;28;20040;-47
2022/10/10 01:45:53;;;;;;;3.55;1.70;;;;;;;11.79;77.92;99866.09;5074755;28;20508;-51
2022/10/10 01:48:37;;;;;;;3.75;1.80;;;;;;;11.75;77.91;99861.06;5068322;28;20115;-47
2022/10/10 01:51:27;;;;;;;4.43;1.60;;;;;;;11.77;77.61;99877.50;5050439;28;20560;-48
2022/10/10 01:54:25;;;;;;;4.35;1.98;;;;;;;11.75;77.70;99884.50;5065717;28;20527;-51
2022/10/10 01:57:13;;;;;;;3.33;1.85;;;;;;;11.75;77.58;99894.94;5045365;28;20175;-52
2022/10/10 02:00:03;;;;;;;4.03;1.77;;;;;;;11.74;77.40;99912.31;5045842;28;20542;-49
2022/10/10 02:02:50;;;;;;;3.88;1.60;;;;;;;11.70;77.26;99908.09;5044209;28;20373;-49
2022/10/10 02:05:49;;;;;;;2.75;1.60;;;;;;;11.66;76.61;99898.69;5045049;28;20059;-53
2022/10/10 02:08:41;;;;;;;2.08;1.60;;;;;;;11.64;76.59;99886.59;5047627;28;20040;-51
2022/10/10 02:11:09;;;;;;;2.42;1.40;;;;;;;11.48;76.14;99876.72;5037820;28;20060;-50
2022/10/10 02:13:38;;;;;;;4.85;1.45;;;;;;;11.58;76.23;99890.28;5013633;28;20052;-51
2022/10/10 02:16:10;;;;;;;2.33;1.42;;;;;;;11.59;76.23;99905.00;5029319;28;20555;-48
2022/10/10 02:18:36;;;;;;;3.03;1.67;;;;;;;11.43;76.21;99878.66;5046496;28;20037;-47
2022/10/10 02:21:05;;;;;;;4.07;1.75;;;;;;;11.58;76.69;99905.91;5046276;28;20045;-50
2022/10/10 02:23:32;;;;;;;4.93;2.10;;;;;;;11.60;76.24;99917.13;5046541;28;20045;-48
2022/10/10 02:25:59;;;;;;;5.03;1.65;;;;;;;11.59;76.63;99918.03;5039416;28;20103;-51
2022/10/10 02:28:41;;;;;;;2.80;1.73;;;;;;;11.58;76.32;99921.53;5033170;28;20056;-51
2022/10/10 02:31:16;;;;;;;3.38;1.65;;;;;;;11.57;76.69;99929.38;5044983;28;20425;-48
2022/10/10 02:33:49;;;;;;;4.28;1.88;;;;;;;11.60;76.71;99944.91;5056992;28;20084;-49
2022/10/10 02:36:16;;;;;;;3.55;1.67;;;;;;;11.45;76.83;99921.13;5065987;28;20036;-50
2022/10/10 02:38:42;;;;;;;4.45;1.95;;;;;;;11.40;76.65;99912.63;5066395;28;20047;-52
2022/10/10 02:41:12;;;;;;;4.75;1.80;;;;;;;11.65;77.14;99943.00;5079958;28;20041;-48
2022/10/10 02:43:39;;;;;;;4.25;1.50;;;;;;;11.63;76.63;99948.25;5058807;28;20049;-49
2022/10/10 02:46:08;;;;;;;4.72;1.90;;;;;;;11.45;76.65;99915.06;5074839;28;20638;-49
2022/10/10 02:48:36;;;;;;;2.95;1.90;;;;;;;11.66;76.71;99939.50;5050756;28;20040;-49
2022/10/10 02:51:02;;;;;;;4.43;1.77;;;;;;;11.60;76.53;99931.91;5052402;28;20036;-47
2022/10/10 02:53:27;;;;;;;3.55;1.55;;;;;;;11.60;76.49;99945.78;5069399;28;20530;-51
2022/10/10 02:55:53;;;;;;;3.70;1.83;;;;;;;11.57;76.19;99940.66;5086408;28;20051;-54
2022/10/10 02:58:21;;;;;;;3.03;1.85;;;;;;;11.57;76.56;99942.41;5070772;28;20074;-49
2022/10/10 03:00:47;;;;;;;4.05;1.92;;;;;;;11.55;76.17;99946.84;5069617;28;20111;-52
2022/10/10 03:03:13;;;;;;;5.13;1.83;;;;;;;11.51;76.19;99938.28;5070784;28;20071;-49
2022/10/10 03:05:39;;;;;;;5.03;2.17;;;;;;;11.58;76.51;99949.31;5048112;28;20060;-52
2022/10/10 03:08:06;;;;;;;5.05;1.92;;;;;;;11.57;75.95;99950.22;5066484;28;20032;-48
2022/10/10 03:10:32;;;;;;;7.13;2.20;;;;;;;11.39;75.79;99920.47;5070707;28;20101;-50
2022/10/10 03:12:59;;;;;;;2.53;1.55;;;;;;;11.50;75.92;99951.34;5071769;28;20047;-53
2022/10/10 03:15:25;;;;;;;3.03;1.70;;;;;;;11.52;75.85;99952.97;5065451;28;20041;-47
2022/10/10 03:17:51;;;;;;;14.65;2.40;;;;;;;11.55;76.01;99952.03;5071615;28;20044;-49
2022/10/10 03:20:17;;;;;;;3.75;2.28;;;;;;;11.53;75.73;99957.28;5071695;28;20462;-49
2022/10/10 03:22:43;;;;;;;5.05;2.33;;;;;;;11.54;75.44;99955.53;5070299;28;20037;-50
2022/10/10 03:25:08;;;;;;;3.30;1.95;;;;;;;11.35;75.68;99937.09;5070301;28;20182;-48
2022/10/10 03:27:34;;;;;;;2.28;1.80;;;;;;;11.53;76.05;99969.47;5071699;28;20051;-50
2022/10/10 03:30:00;;;;;;;2.75;1.90;;;;;;;11.54;75.74;99976.38;5071627;28;20033;-50
2022/10/10 03:32:27;;;;;;;2.72;1.65;;;;;;;11.35;75.61;99942.31;5070880;28;20055;-49
2022/10/10 03:34:52;;;;;;;4.80;2.20;;;;;;;11.52;75.76;99981.63;5070241;28;20056;-51
2022/10/10 03:37:18;;;;;;;3.72;1.73;;;;;;;11.55;75.50;99980.69;5070110;28;20450;-51
2022/10/10 03:39:44;;;;;;;3.88;2.20;;;;;;;11.50;75.52;99983.44;5084132;28;20085;-49
2022/10/10 03:42:10;;;;;;;3.65;1.88;;;;;;;11.51;75.58;99992.13;5073719;28;20134;-52
2022/10/10 03:44:37;;;;;;;5.28;2.13;;;;;;;11.50;75.11;99996.47;5070928;28;20086;-47
2022/10/10 03:47:03;;;;;;;4.07;2.05;;;;;;;11.43;75.16;99989.75;5067946;28;20048;-50
2022/10/10 03:49:29;;;;;;;5.55;1.70;;;;;;;11.35;74.93;99997.81;5069174;28;20107;-46
2022/10/10 03:51:55;;;;;;;3.88;1.90;;;;;;;11.31;75.33;100008.34;5070454;28;20156;-51
2022/10/10 03:54:21;;;;;;;6.90;2.47;;;;;;;11.24;74.83;100012.94;5069367;28;20515;-49
2022/10/10 03:56:46;;;;;;;3.78;2.28;;;;;;;10.98;75.07;99976.47;5071053;28;20175;-48
2022/10/10 03:59:12;;;;;;;5.47;2.83;;;;;;;11.25;75.15;100029.41;5051792;28;20036;-51
2022/10/10 04:01:41;;;;;;;10.02;5.72;;;;;;;11.06;75.22;99990.06;5043861;28;20131;-49
2022/10/10 04:04:07;;;;;;;3.77;2.10;;;;;;;11.24;74.90;100032.91;5069782;28;20119;-48
2022/10/10 04:06:39;;;;;;;4.35;2.00;;;;;;;11.20;75.40;100034.72;5069559;28;20481;-51
2022/10/10 04:09:05;;;;;;;4.40;1.73;;;;;;;11.02;75.54;100017.94;5069283;28;20131;-49
2022/10/10 04:11:31;;;;;;;8.00;2.90;;;;;;;11.16;75.61;100040.06;5069458;28;20097;-52
2022/10/10 04:13:58;;;;;;;4.22;2.08;;;;;;;11.15;76.00;100043.59;5052346;28;20094;-51
2022/10/10 04:16:24;;;;;;;4.68;1.90;;;;;;;11.16;75.46;100047.88;5066640;28;20141;-46
2022/10/10 04:18:50;;;;;;;7.00;2.45;;;;;;;11.08;75.34;100034.28;5061894;28;20036;-53
2022/10/10 04:21:16;;;;;;;5.88;2.22;;;;;;;11.21;75.65;100048.59;5069424;28;20037;-51
2022/10/10 04:23:42;;;;;;;7.30;2.35;;;;;;;11.21;75.84;100048.59;5070065;28;20047;-50
2022/10/10 04:26:08;;;;;;;7.82;3.08;;;;;;;11.21;75.61;100057.25;5052389;28;20597;-48
2022/10/10 04:28:35;;;;;;;7.32;2.42;;;;;;;11.21;75.82;100051.19;5070277;28;20040;-52
2022/10/10 04:31:01;;;;;;;5.90;2.22;;;;;;;11.22;75.63;100052.91;5052099;28;20423;-49
2022/10/10 04:33:26;;;;;;;4.22;2.03;;;;;;;11.27;75.75;100064.03;5070933;28;20040;-53
2022/10/10 04:35:52;;;;;;;6.85;2.92;;;;;;;11.34;75.23;100057.72;5057282;28;20127;-51
2022/10/10 04:38:20;;;;;;;5.47;2.00;;;;;;;11.34;75.20;100071.59;5069094;28;20062;-51
2022/10/10 04:40:49;;;;;;;4.57;2.10;;;;;;;11.17;74.95;100042.63;5069789;28;20504;-51
2022/10/10 04:43:17;;;;;;;3.55;1.95;;;;;;;11.37;75.20;100076.69;5067629;28;20040;-53
2022/10/10 04:45:44;;;;;;;7.25;2.28;;;;;;;11.33;75.11;100085.50;5051406;28;20523;-46
2022/10/10 04:48:10;;;;;;;5.28;2.63;;;;;;;11.16;74.81;100047.88;5066772;28;20040;-52
2022/10/10 04:50:36;;;;;;;5.50;2.50;;;;;;;11.35;75.17;100083.72;5068331;28;20047;-49
2022/10/10 04:53:02;;;;;;;5.28;2.03;;;;;;;11.33;74.71;100089.88;5065605;28;20061;-52
2022/10/10 04:55:28;;;;;;;7.65;2.40;;;;;;;11.34;74.93;100094.19;5068897;28;20512;-52
2022/10/10 04:57:54;;;;;;;5.30;2.55;;;;;;;11.22;74.70;100074.56;5069655;28;20047;-52
2022/10/10 05:00:19;;;;;;;4.65;2.30;;;;;;;11.36;74.20;100095.81;5068329;28;20127;-52
2022/10/10 05:02:46;;;;;;;6.75;2.65;;;;;;;11.36;74.09;100105.38;5068206;28;20040;-49
2022/10/10 05:05:11;;;;;;;9.75;2.67;;;;;;;11.41;73.97;100119.09;5069574;28;20434;-49
2022/10/10 05:07:37;;;;;;;6.00;2.42;;;;;;;11.43;73.77;100122.53;5068601;28;20821;-50
2022/10/10 05:10:05;;;;;;;3.95;2.20;;;;;;;11.45;73.82;100123.34;5050673;28;20130;-49
2022/10/10 05:12:31;;;;;;;8.43;2.50;;;;;;;11.44;73.67;100126.84;5066918;28;20044;-49
2022/10/10 05:14:57;;;;;;;8.55;2.50;;;;;;;11.39;73.00;100118.31;5069026;28;20079;-50
2022/10/10 05:17:23;;;;;;;7.88;4.13;;;;;;;11.48;72.86;100136.25;5084378;28;20070;-51
2022/10/10 05:19:50;;;;;;;5.00;2.30;;;;;;;11.45;72.96;100132.00;5067998;28;20068;-53
2022/10/10 05:22:16;;;;;;;19.00;7.43;;;;;;;11.29;72.86;100096.94;5067750;28;20094;-53
2022/10/10 05:24:42;;;;;;;11.27;5.00;;;;;;;11.58;72.27;100140.28;5051204;28;20048;-51
2022/10/10 05:27:08;;;;;;;6.05;2.58;;;;;;;11.63;72.42;100142.72;5069028;28;20041;-53
2022/10/10 05:29:33;;;;;;;6.72;2.33;;;;;;;11.66;71.71;100147.88;5069367;28;20070;-53
2022/10/10 05:31:59;;;;;;;8.20;2.38;;;;;;;11.67;71.20;100141.75;5068333;28;20043;-53
2022/10/10 05:34:25;;;;;;;5.65;2.08;;;;;;;11.71;71.19;100144.22;5068376;28;20048;-50
2022/10/10 05:36:55;;;;;;;8.48;2.92;;;;;;;11.75;70.81;100147.59;5067220;28;20044;-48
2022/10/10 05:39:21;;;;;;;9.68;2.97;;;;;;;11.86;70.29;100148.13;5069073;28;20040;-50
2022/10/10 05:41:47;;;;;;;5.53;2.35;;;;;;;11.83;70.54;100148.19;5075523;28;20037;-51
2022/10/10 05:44:13;;;;;;;7.55;3.47;;;;;;;12.13;69.70;100152.44;5068769;28;20036;-55
2022/10/10 05:46:39;;;;;;;5.35;2.88;;;;;;;12.74;67.50;100105.97;5068975;28;20818;-54
2022/10/10 05:49:08;;;;;;;7.53;2.28;;;;;;;14.10;65.01;100148.56;5068306;28;20828;-48
2022/10/10 05:51:35;;;;;;;8.90;2.67;;;;;;;14.12;63.78;100155.44;5065588;28;20135;-50
2022/10/10 05:54:01;;;;;;;5.47;2.70;;;;;;;13.57;63.96;100151.56;5050544;28;20044;-52
2022/10/10 05:56:27;;;;;;;4.95;2.00;;;;;;;12.94;64.54;100140.00;5066541;28;20093;-53
2022/10/10 05:58:54;;;;;;;6.15;3.20;;;;;;;12.66;64.97;100154.97;5066314;28;20131;-52
2022/10/10 06:01:19;;;;;;;4.13;2.45;;;;;;;12.50;65.15;100153.78;5066355;28;20127;-53
2022/10/10 06:03:51;;;;;;;4.00;2.30;;;;;;;13.53;63.94;100158.69;5064562;28;20052;-53
2022/10/10 06:06:18;;;;;;;7.50;3.20;;;;;;;15.12;60.77;100156.31;5053599;28;20040;-50
2022/10/10 06:08:44;;;;;;;4.63;2.30;;;;;;;16.21;58.17;100159.91;5067529;28;20044;-53
2022/10/10 06:11:10;;;;;;;8.55;2.72;;;;;;;17.17;55.83;100132.94;5068448;28;20423;-49
2022/10/10 06:13:37;;;;;;;8.18;3.05;;;;;;;18.32;53.51;100143.97;5068337;28;20477;-52
2022/10/10 06:16:03;;;;;;;6.18;2.75;;;;;;;19.30;50.72;100141.53;5068323;28;20071;-50
2022/10/10 06:18:29;;;;;;;6.60;2.63;;;;;;;20.37;48.45;100173.25;5081003;28;20040;-52
2022/10/10 06:21:00;;;;;;;5.15;2.72;;;;;;;20.02;47.87;100148.31;5069688;28;20075;-52
2022/10/10 06:23:27;;;;;;;8.77;2.72;;;;;;;20.42;46.43;100152.66;5067693;28;20109;-48
2022/10/10 06:25:53;;;;;;;3.08;2.10;;;;;;;21.56;44.34;100174.59;5071095;28;20064;-49
2022/10/10 06:28:19;;;;;;;7.70;2.60;;;;;;;22.10;42.97;100178.69;5071268;28;20044;-51
2022/10/10 06:30:49;;;;;;;8.82;2.58;;;;;;;22.79;41.33;100159.28;5064868;28;20653;-50
2022/10/10 06:33:18;;;;;;;5.78;3.45;;;;;;;23.57;39.84;100184.03;5070425;28;20942;-48
2022/10/10 06:35:46;;;;;;;5.75;3.10;;;;;;;23.71;39.11;100190.06;5069414;28;20049;-48
2022/10/10 06:38:14;;;;;;;4.23;2.30;;;;;;;22.96;39.29;100189.81;5070313;28;20041;-48
2022/10/10 06:40:40;;;;;;;3.67;2.08;;;;;;;23.02;38.74;100199.94;5035788;28;20051;-46
2022/10/10 06:43:10;;;;;;;3.97;2.30;;;;;;;22.98;38.58;100194.00;5071210;28;20049;-48
2022/10/10 06:45:37;;;;;;;5.25;2.30;;;;;;;23.23;37.95;100166.44;5068524;28;20126;-47
2022/10/10 06:48:03;;;;;;;6.85;2.42;;;;;;;23.44;37.68;100196.56;5071647;28;20032;-49
2022/10/10 06:50:30;;;;;;;4.40;2.13;;;;;;;24.03;37.11;100198.88;5070519;28;20040;-50
2022/10/10 06:52:56;;;;;;;4.68;2.28;;;;;;;24.36;36.11;100177.53;5052140;28;20047;-51
2022/10/10 06:55:22;;;;;;;8.80;2.35;;;;;;;25.02;34.75;100202.06;5070267;28;20040;-49
2022/10/10 06:57:48;;;;;;;6.70;2.25;;;;;;;25.43;34.03;100205.63;5069406;28;20040;-49
2022/10/10 07:00:14;;;;;;;11.38;3.10;;;;;;;25.78;33.21;100210.53;5069452;28;20036;-49
2022/10/10 07:02:40;;;;;;;7.03;2.50;;;;;;;25.93;32.74;100193.16;5067976;28;20052;-48
2022/10/10 07:05:08;;;;;;;6.18;2.60;;;;;;;26.25;32.49;100187.59;5067918;28;20109;-51
2022/10/10 07:07:34;;;;;;;;;;;;;;;26.68;32.16;100206.69;5069307;28;20040;-47
2022/10/10 07:10:01;;;;;;;5.97;2.38;;;;;;;26.74;31.14;100182.09;5069337;28;19923;-48
2022/10/10 07:12:28;;;;;;;4.17;2.40;;;;;;;27.03;30.54;100198.06;5057804;28;20044;-51
2022/10/10 07:14:54;;;;;;;3.95;2.45;;;;;;;26.96;30.38;100200.44;5073601;28;20037;-49
2022/10/10 07:17:20;;;;;;;6.82;4.15;;;;;;;27.19;30.23;100198.28;5068831;28;20048;-49
2022/10/10 07:19:46;;;;;;;3.65;2.15;;;;;;;27.43;29.58;100195.06;5069891;28;20036;-47
2022/10/10 07:22:12;;;;;;;5.47;2.90;;;;;;;27.26;29.60;100158.47;5069881;28;20419;-49
2022/10/10 07:24:38;;;;;;;4.40;2.55;;;;;;;27.52;29.22;100186.22;5066399;28;20105;-48
2022/10/10 07:27:04;;;;;;;7.00;3.30;;;;;;;27.56;29.25;100203.63;5068145;28;20465;-47
2022/10/10 07:29:30;;;;;;;7.50;2.65;;;;;;;27.32;29.48;100209.44;5072738;28;20038;-50
2022/10/10 07:31:56;;;;;;;9.98;3.13;;;;;;;27.08;29.60;100197.59;5068841;28;20036;-51
2022/10/10 07:34:22;;;;;;;3.45;2.65;;;;;;;27.23;29.52;100194.31;5069283;28;20905;-50
2022/10/10 07:36:49;;;;;;;7.00;2.72;;;;;;;27.53;29.02;100200.44;5070275;28;20041;-49
2022/10/10 07:39:19;;;;;;;5.13;2.80;;;;;;;27.58;29.00;100203.50;5070284;28;20522;-54
2022/10/10 07:41:45;;;;;;;10.20;2.80;;;;;;;27.64;28.94;100174.31;5067819;28;20126;-47
2022/10/10 07:44:12;;;;;;;5.07;2.70;;;;;;;27.92;28.36;100207.22;5070611;28;20539;-50
2022/10/10 07:46:38;;;;;;;4.05;2.25;;;;;;;27.84;28.33;100201.78;5069712;28;20049;-52
2022/10/10 07:49:04;;;;;;;4.47;2.50;;;;;;;27.88;28.34;100196.97;5072965;28;20037;-48
2022/10/10 07:51:30;;;;;;;8.07;2.90;;;;;;;27.83;28.21;100202.78;5069151;28;20048;-50
2022/10/10 07:53:56;;;;;;;8.55;3.83;;;;;;;27.79;28.28;100204.06;5069275;28;20063;-48
2022/10/10 07:56:22;;;;;;;7.00;2.63;;;;;;;27.80;28.12;100209.25;5059236;28;20055;-50
2022/10/10 07:58:49;;;;;;;5.90;2.70;;;;;;;28.18;27.91;100210.84;5054403;28;20035;-46
2022/10/10 08:01:14;;;;;;;8.35;3.15;;;;;;;28.55;27.50;100207.16;5069190;28;20106;-49
2022/10/10 08:03:40;;;;;;;8.65;2.85;;;;;;;28.70;27.01;100189.53;5066872;28;20443;-49
2022/10/10 08:06:11;;;;;;;4.70;2.50;;;;;;;29.04;26.60;100211.91;5069997;28;20075;-46
2022/10/10 08:08:37;;;;;;;7.70;3.13;;;;;;;29.27;26.14;100217.53;5073697;28;20044;-50
2022/10/10 08:11:05;;;;;;;6.95;3.05;;;;;;;29.18;26.08;100220.34;5068045;28;20063;-53
2022/10/10 08:13:31;;;;;;;6.20;2.53;;;;;;;28.74;26.66;100196.28;5052375;28;20036;-54
2022/10/10 08:15:57;;;;;;;4.18;2.42;;;;;;;28.89;26.05;100184.00;5069958;28;20045;-53
2022/10/10 08:18:23;;;;;;;7.10;2.88;;;;;;;29.07;25.74;100213.41;5075074;28;20127;-50
2022/10/10 08:21:03;;;;;;;7.75;3.45;;;;;;;29.26;25.35;100217.69;5068717;28;20128;-50
2022/10/10 08:23:29;;;;;;;4.32;2.28;;;;;;;29.14;25.24;100190.38;5080919;28;20070;-50
2022/10/10 08:25:58;;;;;;;5.97;2.40;;;;;;;29.62;24.40;100215.75;5084510;28;20075;-46
2022/10/10 08:28:25;;;;;;;6.65;4.20;;;;;;;29.80;23.95;100216.47;5068169;28;20044;-52
2022/10/10 08:30:50;;;;;;;5.88;1.73;;;;;;;30.15;23.86;100207.34;5069790;28;20040;-53
2022/10/10 08:33:16;;;;;;;7.68;2.20;;;;;;;30.41;23.21;100202.66;5068253;28;20057;-48
2022/10/10 08:35:42;;;;;;;7.45;2.17;;;;;;;30.39;23.07;100183.22;5067482;28;20150;-52
2022/10/10 08:38:08;;;;;;;10.75;2.33;;;;;;;30.57;22.82;100191.97;5069769;28;20048;-50
2022/10/10 08:40:45;;;;;;;4.60;2.00;;;;;;;30.45;23.25;100201.34;5066084;28;20786;-48
2022/10/10 08:43:20;;;;;;;4.50;2.25;;;;;;;30.26;22.98;100199.81;5065185;28;20431;-52
2022/10/10 08:45:48;;;;;;;5.07;2.30;;;;;;;30.76;22.32;100200.69;5064998;28;20117;-50
2022/10/10 08:48:15;;;;;;;2.72;1.75;;;;;;;31.62;21.70;100211.56;5065924;28;20055;-49
2022/10/10 08:50:52;;;;;;;4.00;1.88;;;;;;;32.18;20.87;100200.53;5055317;28;20482;-51
2022/10/10 08:53:36;;;;;;;8.23;2.10;;;;;;;32.33;20.46;100162.91;5064264;28;20048;-53
2022/10/10 08:56:05;;;;;;;3.90;2.30;;;;;;;33.06;19.98;100203.47;5065433;28;20032;-50
2022/10/10 08:58:36;;;;;;;7.78;3.95;;;;;;;33.55;19.81;100211.81;5066877;28;20081;-50
2022/10/10 09:01:18;;;;;;;4.20;2.33;;;;;;;34.01;18.81;100203.50;5068294;28;20069;-54
2022/10/10 09:03:51;;;;;;;5.97;2.65;;;;;;;34.27;18.72;100217.28;5067828;28;20086;-53
2022/10/10 09:06:38;;;;;;;4.90;3.08;;;;;;;34.42;18.38;100220.75;5068225;28;20036;-55
2022/10/10 09:09:27;;;;;;;2.03;1.65;;;;;;;34.81;17.62;100214.88;5077624;28;20054;-49
2022/10/10 09:12:11;;;;;;;6.43;3.25;;;;;;;35.02;17.57;100208.56;5063231;28;20044;-51
2022/10/10 09:14:50;;;;;;;4.10;2.45;;;;;;;34.97;17.50;100221.00;5065467;28;20044;-49
2022/10/10 09:17:39;;;;;;;5.07;1.90;;;;;;;34.94;17.91;100219.53;5071211;28;20044;-48
2022/10/10 09:20:20;;;;;;;6.03;1.90;;;;;;;34.59;17.57;100228.59;5066996;28;20526;-49
2022/10/10 09:23:02;;;;;;;4.57;1.90;;;;;;;34.36;17.84;100218.81;5063423;28;20052;-49
2022/10/10 09:25:39;;;;;;;10.93;5.18;;;;;;;34.51;18.07;100224.16;5068060;28;20060;-53
2022/10/10 09:28:45;;;;;;;10.63;2.43;;;;;;;34.76;17.74;100228.13;5070818;28;20060;-51
2022/10/10 09:31:37;;;;;;;3.50;2.45;;;;;;;35.19;17.58;100223.47;5037760;28;20109;-50
2022/10/10 09:34:13;;;;;;;5.00;2.05;;;;;;;35.37;17.21;100224.84;5067562;28;20052;-55
2022/10/10 09:36:39;;;;;;;7.80;2.08;;;;;;;34.89;17.29;100204.94;5050006;28;20048;-52
2022/10/10 09:39:23;;;;;;;6.78;1.70;;;;;;;34.93;17.08;100220.56;5095223;28;20060;-52
2022/10/10 09:42:10;;;;;;;4.32;1.73;;;;;;;35.10;16.75;100226.50;5074801;28;20042;-51
2022/10/10 09:44:40;;;;;;;3.45;1.75;;;;;;;35.02;16.92;100226.66;5069308;28;20093;-52
2022/10/10 09:47:12;;;;;;;5.80;1.88;;;;;;;35.20;16.99;100230.56;5065297;28;20098;-51
2022/10/10 09:49:39;;;;;;;4.47;3.28;;;;;;;35.39;16.93;100233.56;5066964;28;20056;-55
2022/10/10 09:52:26;;;;;;;6.43;2.10;;;;;;;35.60;16.39;100231.59;5067484;28;20043;-51
2022/10/10 09:54:59;;;;;;;4.00;2.15;;;;;;;35.47;16.85;100239.66;5069816;28;20515;-50
2022/10/10 09:57:29;;;;;;;4.53;2.60;;;;;;;35.69;16.67;100235.03;5067151;28;20044;-50
2022/10/10 09:59:55;;;;;;;3.38;1.70;;;;;;;35.84;15.99;100213.19;5077205;28;20131;-49
2022/10/10 10:02:24;;;;;;;2.88;2.08;;;;;;;36.07;15.88;100233.47;5070684;28;20477;-51
2022/10/10 10:04:51;;;;;;;4.32;2.05;;;;;;;36.04;16.26;100235.75;5071848;28;20131;-52
2022/10/10 10:07:22;;;;;;;4.28;1.95;;;;;;;36.04;15.83;100233.88;5071064;28;20125;-51
2022/10/10 10:09:50;;;;;;;8.82;6.07;;;;;;;36.00;15.83;100218.25;5070837;28;20040;-50
2022/10/10 10:12:23;;;;;;;2.80;1.90;;;;;;;36.31;15.63;100234.81;5070635;28;20040;-54
2022/10/10 10:14:51;;;;;;;3.38;2.00;;;;;;;36.11;15.45;100221.16;5037837;28;20040;-49
2022/10/10 10:17:21;;;;;;;6.30;2.40;;;;;;;36.20;15.33;100242.69;5069529;28;20040;-53
2022/10/10 10:19:47;;;;;;;6.80;1.70;;;;;;;36.02;15.29;100218.88;5051963;28;20068;-51
2022/10/10 10:22:46;;;;;;;5.07;1.70;;;;;;;36.04;15.39;100235.75;5017702;28;20041;-51
2022/10/10 10:25:30;;;;;;;4.13;1.80;;;;;;;36.02;15.32;100241.34;5058814;28;20048;-48
2022/10/10 10:28:14;;;;;;;4.55;2.85;;;;;;;36.08;15.80;100232.44;5071563;28;20108;-50
2022/10/10 10:30:41;;;;;;;3.55;1.85;;;;;;;36.10;16.10;100234.94;5067361;28;20048;-51
2022/10/10 10:33:19;;;;;;;3.47;2.00;;;;;;;36.03;15.57;100239.50;5088192;28;20042;-50
2022/10/10 10:36:08;;;;;;;4.03;2.50;;;;;;;35.73;15.54;100192.13;5072047;28;20622;-46
2022/10/10 10:38:45;;;;;;;5.60;1.50;;;;;;;35.87;15.52;100235.28;5072006;28;20167;-51
2022/10/10 10:41:46;;;;;;;5.25;4.65;;;;;;;35.86;15.12;100238.19;5067192;28;20094;-48
2022/10/10 10:44:31;;;;;;;3.58;1.88;;;;;;;35.78;15.62;100228.38;5048261;28;20048;-50
2022/10/10 10:47:13;;;;;;;4.13;1.77;;;;;;;35.84;15.42;100229.44;5071064;28;20047;-50
2022/10/10 10:49:55;;;;;;;3.60;1.98;;;;;;;35.83;15.58;100228.59;5070959;28;20040;-52
2022/10/10 10:52:39;;;;;;;4.22;2.20;;;;;;;35.94;15.11;100227.19;5071227;28;20043;-52
2022/10/10 10:55:11;;;;;;;3.53;2.00;;;;;;;35.91;15.47;100235.69;5068281;28;20040;-54
2022/10/10 10:57:49;;;;;;;2.03;1.80;;;;;;;35.94;15.44;100230.72;5070173;28;20519;-52
2022/10/10 11:00:17;;;;;;;3.13;2.08;;;;;;;36.01;15.76;100238.88;5062900;28;20039;-51
2022/10/10 11:02:59;;;;;;;3.85;1.70;;;;;;;35.93;15.14;100241.75;5064830;28;20120;-47
2022/10/10 11:05:48;;;;;;;5.05;2.70;;;;;;;36.03;15.23;100242.19;5063303;28;20436;-50
2022/10/10 11:08:23;;;;;;;3.47;2.72;;;;;;;35.85;15.53;100240.06;5067191;28;20912;-48
2022/10/10 11:11:15;;;;;;;2.50;1.42;;;;;;;35.94;15.41;100238.84;5064984;28;20045;-55
2022/10/10 11:14:29;;;;;;;6.07;1.80;;;;;;;35.81;15.47;100246.91;5048656;28;20058;-50
2022/10/10 11:17:23;;;;;;;8.35;2.05;;;;;;;35.67;15.71;100237.06;5058541;28;20049;-51
2022/10/10 11:19:55;;;;;;;3.63;1.50;;;;;;;35.62;15.96;100240.34;5047497;28;20120;-55
2022/10/10 11:22:36;;;;;;;3.22;1.52;;;;;;;33.98;16.70;100239.78;5069598;28;20045;-48
2022/10/10 11:25:24;;;;;;;4.57;2.00;;;;;;;31.87;18.45;100232.81;5072230;28;20177;-49
2022/10/10 11:27:58;;;;;;;3.45;1.55;;;;;;;29.35;20.54;100217.63;5076588;28;20040;-50
2022/10/10 11:30:25;;;;;;;2.78;2.05;;;;;;;27.42;22.21;100188.88;5067383;28;20591;-48
2022/10/10 11:32:54;;;;;;;5.18;1.48;;;;;;;26.24;23.86;100224.09;5069348;28;20435;-49
2022/10/10 11:35:45;;;;;;;3.88;1.52;;;;;;;25.20;25.03;100199.63;5068188;28;20060;-55
2022/10/10 11:38:11;;;;;;;4.50;3.00;;;;;;;25.02;25.49;100233.16;5074311;28;20583;-51
2022/10/10 11:41:02;;;;;;;6.50;3.63;;;;;;;24.08;27.51;100224.09;5070087;28;20040;-51
2022/10/10 11:43:48;;;;;;;5.75;3.17;;;;;;;23.44;28.32;100222.28;5095937;28;20051;-51
2022/10/10 11:46:32;;;;;;;9.10;2.20;;;;;;;22.97;29.04;100221.53;5053701;28;20040;-48